Time;durP1;ratioP1;P1;durP2;ratioP2;P2;SDS_P1;SDS_P2;PMS_P1;PMS_P2;Temp;Humidity;BMP_temperature;BMP_pressure;BME280_temperature;BME280_humidity;BME280_pressure;Samples;Min_cycle;Max_cycle;Signal;HPM_P1;HPM_P2
2021/06/09 00:00:08;;;;;;;;;;;13.30;95.80;;;;;;5098961;28;19919;-71
2021/06/09 00:02:34;;;;;;;;;;;13.30;95.70;;;;;;5099392;28;20017;-72
2021/06/09 00:04:59;;;;;;;;;;;13.40;95.70;;;;;;5098439;28;19961;-71
2021/06/09 00:07:25;;;;;;;;;;;13.50;95.70;;;;;;5098036;28;20260;-71
2021/06/09 00:09:50;;;;;;;;;;;13.50;95.70;;;;;;5087939;28;19912;-72
2021/06/09 00:12:16;;;;;;;;;;;13.50;95.60;;;;;;5098376;28;20053;-71
2021/06/09 00:14:41;;;;;;;;;;;13.50;95.80;;;;;;5097260;28;19948;-72
2021/06/09 00:17:07;;;;;;;;;;;13.40;95.90;;;;;;5100055;28;19916;-71
2021/06/09 00:19:32;;;;;;;;;;;13.30;96.10;;;;;;5098566;28;19919;-72
2021/06/09 00:21:59;;;;;;;;;;;13.20;96.10;;;;;;5096611;28;19912;-72
2021/06/09 00:24:25;;;;;;;;;;;13.10;96.10;;;;;;5096710;28;19927;-71
2021/06/09 00:26:51;;;;;;;;;;;13.10;96.00;;;;;;5097355;28;19908;-71
2021/06/09 00:29:18;;;;;;;;;;;13.10;95.90;;;;;;5097582;28;19911;-72
2021/06/09 00:31:44;;;;;;;;;;;13.10;95.70;;;;;;5090309;28;19958;-72
2021/06/09 00:34:09;;;;;;;;;;;13.10;95.90;;;;;;5094812;28;20317;-71
2021/06/09 00:36:35;;;;;;;;;;;13.00;96.00;;;;;;5095522;28;19965;-72
2021/06/09 00:39:00;;;;;;;;;;;13.00;95.90;;;;;;5094450;28;19913;-72
2021/06/09 00:41:26;;;;;;;;;;;12.90;96.20;;;;;;5082786;28;19965;-71
2021/06/09 00:43:54;;;;;;;;;;;12.80;96.30;;;;;;5090844;28;19916;-72
2021/06/09 00:46:19;;;;;;;;;;;12.70;96.20;;;;;;5098589;28;19986;-72
2021/06/09 00:48:45;;;;;;;;;;;12.60;96.10;;;;;;5095524;28;20015;-71
2021/06/09 00:51:16;;;;;;;;;;;12.60;96.30;;;;;;5096066;28;20003;-72
2021/06/09 00:53:49;;;;;;;;;;;12.50;96.20;;;;;;5087444;28;19927;-71
2021/06/09 00:56:15;;;;;;;;;;;12.40;96.30;;;;;;5098034;28;19920;-72
2021/06/09 00:58:41;;;;;;;;;;;12.40;96.00;;;;;;5093739;28;19967;-72
2021/06/09 01:01:07;;;;;;;;;;;12.40;96.10;;;;;;5089479;28;19981;-72
2021/06/09 01:03:34;;;;;;;;;;;12.30;96.10;;;;;;5097728;28;20014;-71
2021/06/09 01:05:59;;;;;;;;;;;12.40;95.80;;;;;;5096144;28;19977;-72
2021/06/09 01:08:26;;;;;;;;;;;12.50;95.80;;;;;;5095986;28;19912;-72
2021/06/09 01:10:52;;;;;;;;;;;12.50;95.80;;;;;;5079215;28;19919;-72
2021/06/09 01:13:20;;;;;;;;;;;12.70;95.80;;;;;;5097395;28;19912;-72
2021/06/09 01:15:46;;;;;;;;;;;12.70;95.70;;;;;;5097298;28;19916;-71
2021/06/09 01:18:11;;;;;;;;;;;12.70;95.80;;;;;;5092792;28;19965;-72
2021/06/09 01:20:37;;;;;;;;;;;12.70;95.70;;;;;;5097106;28;19939;-72
2021/06/09 01:23:03;;;;;;;;;;;12.70;95.80;;;;;;5078546;28;19938;-72
2021/06/09 01:25:29;;;;;;;;;;;12.60;95.80;;;;;;5096126;28;19920;-71
2021/06/09 01:27:55;;;;;;;;;;;12.60;95.80;;;;;;5092790;28;19982;-72
2021/06/09 01:30:20;;;;;;;;;;;12.50;95.80;;;;;;5092741;28;19921;-72
2021/06/09 01:32:46;;;;;;;;;;;12.40;95.90;;;;;;5095320;28;19912;-72
2021/06/09 01:35:12;;;;;;;;;;;12.40;95.50;;;;;;5096124;28;20526;-72
2021/06/09 01:37:38;;;;;;;;;;;12.40;95.60;;;;;;5090595;28;19956;-72
2021/06/09 01:40:06;;;;;;;;;;;12.40;95.60;;;;;;5089857;28;19992;-72
2021/06/09 01:42:31;;;;;;;;;;;12.50;95.50;;;;;;5087661;28;19919;-71
2021/06/09 01:44:57;;;;;;;;;;;12.60;95.50;;;;;;5087286;28;19916;-71
2021/06/09 01:47:23;;;;;;;;;;;12.60;95.50;;;;;;5096918;28;19912;-72
2021/06/09 01:49:49;;;;;;;;;;;12.60;95.60;;;;;;5097159;28;19912;-72
2021/06/09 01:52:14;;;;;;;;;;;12.60;95.40;;;;;;5081765;28;19916;-71
2021/06/09 01:54:40;;;;;;;;;;;12.70;95.50;;;;;;5095936;28;19916;-71
2021/06/09 01:57:06;;;;;;;;;;;12.60;95.60;;;;;;5094677;28;19938;-71
2021/06/09 01:59:32;;;;;;;;;;;12.60;95.60;;;;;;5096562;28;19918;-71
2021/06/09 02:01:58;;;;;;;;;;;12.50;95.50;;;;;;5075888;28;20011;-72
2021/06/09 02:04:24;;;;;;;;;;;12.50;95.40;;;;;;5092121;28;20293;-72
2021/06/09 02:06:51;;;;;;;;;;;12.60;95.30;;;;;;5094252;28;19916;-72
2021/06/09 02:09:16;;;;;;;;;;;12.80;95.40;;;;;;5077792;28;19916;-72
2021/06/09 02:11:43;;;;;;;;;;;13.00;95.50;;;;;;5090945;28;19912;-72
2021/06/09 02:14:09;;;;;;;;;;;13.00;95.40;;;;;;5086518;28;19916;-72
2021/06/09 02:16:36;;;;;;;;;;;13.00;95.40;;;;;;5095782;28;20016;-72
2021/06/09 02:19:02;;;;;;;;;;;13.10;95.30;;;;;;5095257;28;19999;-72
2021/06/09 02:21:28;;;;;;;;;;;13.10;95.30;;;;;;5069812;28;20222;-72
2021/06/09 02:23:54;;;;;;;;;;;13.10;95.30;;;;;;5079222;28;19923;-72
2021/06/09 02:26:19;;;;;;;;;;;13.10;95.30;;;;;;5095891;28;19912;-72
2021/06/09 02:28:45;;;;;;;;;;;13.10;95.30;;;;;;5095805;28;19919;-72
2021/06/09 02:31:15;;;;;;;;;;;13.00;95.30;;;;;;5094842;28;20309;-73
2021/06/09 02:33:41;;;;;;;;;;;13.00;95.30;;;;;;5095561;28;19920;-72
2021/06/09 02:36:06;;;;;;;;;;;13.00;95.20;;;;;;5087609;28;19930;-72
2021/06/09 02:38:35;;;;;;;;;;;13.00;95.30;;;;;;5095435;28;20009;-72
2021/06/09 02:41:00;;;;;;;;;;;12.90;95.30;;;;;;5094129;28;19951;-71
2021/06/09 02:43:31;;;;;;;;;;;12.90;95.30;;;;;;5093088;28;19962;-72
2021/06/09 02:45:58;;;;;;;;;;;12.80;95.30;;;;;;5088754;28;19924;-72
2021/06/09 02:48:29;;;;;;;;;;;12.80;95.40;;;;;;5092215;28;20294;-72
2021/06/09 02:50:54;;;;;;;;;;;12.80;95.30;;;;;;5084794;28;19912;-73
2021/06/09 02:53:26;;;;;;;;;;;12.80;95.20;;;;;;5095388;28;19958;-72
2021/06/09 02:56:11;;;;;;;;;;;12.80;95.30;;;;;;5089643;28;19944;-72
2021/06/09 02:58:46;;;;;;;;;;;12.80;95.30;;;;;;5086525;28;19923;-72
2021/06/09 03:01:32;;;;;;;;;;;12.80;95.20;;;;;;5094147;28;19916;-72
2021/06/09 03:04:06;;;;;;;;;;;12.80;95.20;;;;;;5076509;28;20011;-72
2021/06/09 03:06:40;;;;;;;;;;;12.80;95.30;;;;;;5094075;28;19912;-72
2021/06/09 03:09:10;;;;;;;;;;;12.70;95.30;;;;;;5094599;28;19916;-71
2021/06/09 03:11:53;;;;;;;;;;;12.60;95.30;;;;;;5088922;28;19912;-72
2021/06/09 03:17:06;;;;;;;;;;;12.70;95.10;;;;;;5076581;28;19920;-72
2021/06/09 03:19:40;;;;;;;;;;;12.70;95.30;;;;;;5086572;28;19912;-72
2021/06/09 03:22:13;;;;;;;;;;;12.50;95.30;;;;;;5093336;28;19912;-72
2021/06/09 03:24:41;;;;;;;;;;;12.50;95.20;;;;;;5095309;28;20002;-72
2021/06/09 03:27:18;;;;;;;;;;;12.50;95.20;;;;;;5095035;28;19939;-72
2021/06/09 03:29:52;;;;;;;;;;;12.60;95.30;;;;;;5094445;28;19916;-72
2021/06/09 03:32:21;;;;;;;;;;;12.60;95.30;;;;;;5076236;28;19916;-72
2021/06/09 03:34:52;;;;;;;;;;;12.70;95.30;;;;;;5071903;28;19962;-71
2021/06/09 03:37:20;;;;;;;;;;;12.70;95.30;;;;;;5088561;28;19916;-72
2021/06/09 03:39:46;;;;;;;;;;;12.60;95.30;;;;;;5089915;28;19912;-72
2021/06/09 03:42:14;;;;;;;;;;;12.50;95.20;;;;;;5083428;28;19916;-72
2021/06/09 03:44:45;;;;;;;;;;;12.50;95.30;;;;;;5084517;28;20292;-71
2021/06/09 03:47:11;;;;;;;;;;;12.50;95.20;;;;;;5093862;28;19912;-72
2021/06/09 03:49:38;;;;;;;;;;;12.50;95.20;;;;;;5088432;28;19916;-72
2021/06/09 03:52:03;;;;;;;;;;;12.60;95.20;;;;;;5093575;28;19957;-72
2021/06/09 03:54:31;;;;;;;;;;;12.60;95.30;;;;;;5093023;28;20003;-72
2021/06/09 03:56:57;;;;;;;;;;;12.70;95.20;;;;;;5091480;28;19912;-72
2021/06/09 03:59:24;;;;;;;;;;;12.70;95.20;;;;;;5075939;28;19912;-71
2021/06/09 04:01:50;;;;;;;;;;;12.70;95.30;;;;;;5074437;28;20625;-72
2021/06/09 04:04:16;;;;;;;;;;;12.70;95.20;;;;;;5093979;28;20001;-72
2021/06/09 04:06:42;;;;;;;;;;;12.80;95.20;;;;;;5086672;28;20245;-72
2021/06/09 04:09:09;;;;;;;;;;;12.90;95.20;;;;;;5094402;28;19912;-72
2021/06/09 04:11:35;;;;;;;;;;;13.00;95.20;;;;;;5091720;28;20301;-72
2021/06/09 04:14:01;;;;;;;;;;;13.20;95.30;;;;;;5094217;28;20070;-72
2021/06/09 04:16:31;;;;;;;;;;;13.30;95.30;;;;;;5084672;28;20023;-71
2021/06/09 04:18:57;;;;;;;;;;;13.40;95.20;;;;;;5090843;28;20046;-71
2021/06/09 04:21:24;;;;;;;;;;;13.40;95.20;;;;;;5084732;28;20003;-72
2021/06/09 04:23:50;;;;;;;;;;;13.50;95.20;;;;;;5093480;28;19948;-72
2021/06/09 04:26:16;;;;;;;;;;;13.60;95.20;;;;;;5097795;28;19987;-72
2021/06/09 04:28:42;;;;;;;;;;;13.80;95.20;;;;;;5094929;28;19921;-72
2021/06/09 04:31:08;;;;;;;;;;;13.80;95.20;;;;;;5095639;28;19916;-72
2021/06/09 04:33:33;;;;;;;;;;;13.80;95.10;;;;;;5066554;28;19920;-72
2021/06/09 04:35:59;;;;;;;;;;;13.80;95.10;;;;;;5093022;28;19927;-72
2021/06/09 04:38:25;;;;;;;;;;;13.80;95.00;;;;;;5097792;28;19982;-72
2021/06/09 04:40:51;;;;;;;;;;;13.80;95.00;;;;;;5095060;28;19930;-72
2021/06/09 04:43:18;;;;;;;;;;;14.00;95.10;;;;;;5086074;28;20017;-72
2021/06/09 04:45:43;;;;;;;;;;;14.10;95.10;;;;;;5092718;28;19973;-71
2021/06/09 04:48:13;;;;;;;;;;;14.20;95.10;;;;;;5075786;28;19912;-71
2021/06/09 04:50:39;;;;;;;;;;;14.20;95.00;;;;;;5090965;28;20231;-71
2021/06/09 04:53:11;;;;;;;;;;;14.40;95.10;;;;;;5091233;28;19923;-71
2021/06/09 04:55:40;;;;;;;;;;;14.60;95.10;;;;;;5094307;28;19916;-73
2021/06/09 04:58:06;;;;;;;;;;;14.80;95.10;;;;;;5096554;28;19923;-73
2021/06/09 05:00:31;;;;;;;;;;;15.00;95.20;;;;;;5089253;28;19916;-73
2021/06/09 05:02:57;;;;;;;;;;;15.00;95.00;;;;;;5086636;28;19917;-72
2021/06/09 05:05:22;;;;;;;;;;;15.00;95.10;;;;;;5095261;28;19916;-71
2021/06/09 05:07:48;;;;;;;;;;;15.10;95.30;;;;;;5078465;28;19916;-72
2021/06/09 05:10:14;;;;;;;;;;;15.10;95.50;;;;;;5096736;28;19916;-72
2021/06/09 05:12:46;;;;;;;;;;;15.20;95.80;;;;;;5097672;28;19919;-72
2021/06/09 05:15:12;;;;;;;;;;;15.30;96.60;;;;;;5079484;28;20030;-72
2021/06/09 05:17:42;;;;;;;;;;;15.20;97.40;;;;;;5079363;28;20263;-72
2021/06/09 05:20:08;;;;;;;;;;;15.20;97.80;;;;;;5097744;28;19920;-72
2021/06/09 05:22:36;;;;;;;;;;;15.30;98.00;;;;;;5096372;28;19916;-72
2021/06/09 05:25:04;;;;;;;;;;;15.30;98.00;;;;;;5079065;28;20386;-72
2021/06/09 05:27:30;;;;;;;;;;;15.40;98.00;;;;;;5097494;28;19912;-72
2021/06/09 05:29:56;;;;;;;;;;;15.50;98.00;;;;;;5097391;28;20369;-72
2021/06/09 05:32:22;;;;;;;;;;;15.80;98.00;;;;;;5079062;28;19958;-72
2021/06/09 05:34:48;;;;;;;;;;;16.10;98.00;;;;;;5096962;28;20282;-72
2021/06/09 05:37:14;;;;;;;;;;;16.40;98.00;;;;;;5095690;28;19926;-72
2021/06/09 05:39:42;;;;;;;;;;;16.70;98.00;;;;;;5097379;28;20015;-72
2021/06/09 05:42:10;;;;;;;;;;;16.80;98.00;;;;;;5097714;28;19977;-72
2021/06/09 05:44:35;;;;;;;;;;;16.70;97.50;;;;;;5097481;28;19961;-72
2021/06/09 05:47:02;;;;;;;;;;;16.70;97.30;;;;;;5097366;28;19920;-72
2021/06/09 05:49:28;;;;;;;;;;;16.70;97.20;;;;;;5097484;28;19916;-72
2021/06/09 05:51:53;;;;;;;;;;;16.70;97.20;;;;;;5078432;28;19908;-72
2021/06/09 05:54:19;;;;;;;;;;;16.70;96.90;;;;;;5079132;28;19909;-72
2021/06/09 05:56:45;;;;;;;;;;;16.70;96.70;;;;;;5097493;28;19912;-72
2021/06/09 05:59:12;;;;;;;;;;;16.80;96.80;;;;;;5097539;28;19912;-72
2021/06/09 06:01:38;;;;;;;;;;;16.90;96.70;;;;;;5078181;28;19916;-72
2021/06/09 06:04:04;;;;;;;;;;;16.90;96.60;;;;;;5096240;28;19908;-72
2021/06/09 06:06:30;;;;;;;;;;;16.80;96.70;;;;;;5088073;28;19919;-72
2021/06/09 06:08:55;;;;;;;;;;;16.90;96.70;;;;;;5092212;28;20046;-72
2021/06/09 06:11:22;;;;;;;;;;;17.00;96.40;;;;;;5097247;28;19952;-72
2021/06/09 06:13:47;;;;;;;;;;;17.20;96.00;;;;;;5079161;28;19916;-72
2021/06/09 06:16:17;;;;;;;;;;;17.30;96.30;;;;;;5078933;28;19919;-72
2021/06/09 06:18:43;;;;;;;;;;;17.50;96.10;;;;;;5078900;28;20217;-72
2021/06/09 06:21:10;;;;;;;;;;;17.70;95.50;;;;;;5094804;28;19908;-72
2021/06/09 06:23:36;;;;;;;;;;;17.90;95.20;;;;;;5096822;28;19912;-72
2021/06/09 06:26:02;;;;;;;;;;;18.00;94.90;;;;;;5096547;28;20414;-72
2021/06/09 06:28:28;;;;;;;;;;;18.10;94.90;;;;;;5096859;28;20317;-72
2021/06/09 06:30:54;;;;;;;;;;;18.30;95.30;;;;;;5096477;28;19947;-72
2021/06/09 06:33:26;;;;;;;;;;;18.30;95.20;;;;;;5096756;28;19918;-72
2021/06/09 06:35:51;;;;;;;;;;;18.40;94.60;;;;;;5094759;28;19908;-72
2021/06/09 06:38:18;;;;;;;;;;;18.50;94.70;;;;;;5096424;28;20010;-72
2021/06/09 06:40:44;;;;;;;;;;;18.60;94.40;;;;;;5096268;28;19965;-72
2021/06/09 06:43:10;;;;;;;;;;;18.80;94.60;;;;;;5096588;28;19914;-72
2021/06/09 06:45:35;;;;;;;;;;;18.90;94.60;;;;;;5096307;28;19912;-72
2021/06/09 06:48:02;;;;;;;;;;;19.20;94.20;;;;;;5095631;28;20256;-72
2021/06/09 06:50:28;;;;;;;;;;;19.40;93.90;;;;;;5077687;28;20327;-72
2021/06/09 06:52:55;;;;;;;;;;;19.50;93.60;;;;;;5086994;28;20019;-72
2021/06/09 06:55:21;;;;;;;;;;;19.90;93.30;;;;;;5069427;28;20308;-72
2021/06/09 06:57:48;;;;;;;;;;;20.00;92.20;;;;;;5096169;28;19923;-72
2021/06/09 07:00:16;;;;;;;;;;;20.00;91.90;;;;;;5064494;28;20022;-72
2021/06/09 07:02:44;;;;;;;;;;;19.80;92.40;;;;;;5083570;28;19965;-72
2021/06/09 07:05:10;;;;;;;;;;;19.60;92.50;;;;;;5096135;28;19916;-72
2021/06/09 07:07:39;;;;;;;;;;;19.40;93.40;;;;;;5095027;28;19938;-72
2021/06/09 07:10:06;;;;;;;;;;;19.40;93.90;;;;;;5078159;28;19908;-72
2021/06/09 07:12:34;;;;;;;;;;;19.50;93.00;;;;;;5096207;28;19935;-72
2021/06/09 07:14:59;;;;;;;;;;;19.60;93.00;;;;;;5077948;28;19969;-72
2021/06/09 07:17:26;;;;;;;;;;;19.60;92.40;;;;;;5095878;28;20266;-72
2021/06/09 07:19:51;;;;;;;;;;;19.60;92.50;;;;;;5095807;28;19946;-72
2021/06/09 07:22:17;;;;;;;;;;;19.80;93.20;;;;;;5094992;28;20252;-72
2021/06/09 07:24:43;;;;;;;;;;;20.20;92.00;;;;;;5077883;28;20370;-72
2021/06/09 07:27:09;;;;;;;;;;;20.90;90.60;;;;;;5086151;28;19912;-72
2021/06/09 07:29:36;;;;;;;;;;;21.10;90.10;;;;;;5090104;28;19912;-72
2021/06/09 07:32:03;;;;;;;;;;;20.80;90.20;;;;;;5078106;28;19913;-72
2021/06/09 07:34:28;;;;;;;;;;;21.20;90.10;;;;;;5095522;28;19912;-72
2021/06/09 07:36:59;;;;;;;;;;;21.70;88.60;;;;;;5094425;28;19919;-72
2021/06/09 07:39:31;;;;;;;;;;;22.10;87.50;;;;;;5094677;28;19960;-72
2021/06/09 07:41:58;;;;;;;;;;;22.20;86.60;;;;;;5095334;28;19912;-72
2021/06/09 07:44:25;;;;;;;;;;;21.80;88.50;;;;;;5095282;28;19912;-71
2021/06/09 07:46:51;;;;;;;;;;;21.50;88.30;;;;;;5095159;28;19914;-72
2021/06/09 07:49:18;;;;;;;;;;;21.70;89.00;;;;;;5076855;28;19912;-73
2021/06/09 07:51:45;;;;;;;;;;;22.10;87.30;;;;;;5093477;28;19913;-73
2021/06/09 07:54:11;;;;;;;;;;;22.30;87.10;;;;;;5095205;28;19944;-72
2021/06/09 07:56:39;;;;;;;;;;;22.30;87.20;;;;;;5094617;28;19908;-73
2021/06/09 07:59:06;;;;;;;;;;;22.60;86.40;;;;;;5095297;28;19916;-72
2021/06/09 08:01:32;;;;;;;;;;;23.10;85.60;;;;;;5094920;28;19908;-72
2021/06/09 08:03:58;;;;;;;;;;;22.90;85.70;;;;;;5080731;28;19958;-72
2021/06/09 08:06:26;;;;;;;;;;;22.20;87.00;;;;;;5079864;28;19916;-72
2021/06/09 08:08:52;;;;;;;;;;;21.70;89.10;;;;;;5098800;28;19931;-72
2021/06/09 08:11:18;;;;;;;;;;;21.60;89.40;;;;;;5080891;28;20308;-73
2021/06/09 08:13:44;;;;;;;;;;;21.90;89.10;;;;;;5099052;28;19908;-72
2021/06/09 08:16:13;;;;;;;;;;;21.90;88.60;;;;;;5098299;28;20384;-72
2021/06/09 08:18:39;;;;;;;;;;;22.10;89.00;;;;;;5098762;28;19916;-72
2021/06/09 08:21:08;;;;;;;;;;;23.30;85.50;;;;;;5096937;28;20309;-72
2021/06/09 08:23:33;;;;;;;;;;;23.50;84.00;;;;;;5098666;28;20270;-72
2021/06/09 08:25:59;;;;;;;;;;;23.00;84.20;;;;;;5098238;28;19935;-72
2021/06/09 08:28:25;;;;;;;;;;;22.50;86.10;;;;;;5098203;28;19921;-72
2021/06/09 08:30:51;;;;;;;;;;;23.10;85.30;;;;;;5081559;28;20221;-72
2021/06/09 08:33:17;;;;;;;;;;;22.50;84.80;;;;;;5060410;28;19919;-72
2021/06/09 08:35:42;;;;;;;;;;;22.10;86.60;;;;;;5077185;28;19915;-72
2021/06/09 08:38:08;;;;;;;;;;;22.30;86.60;;;;;;5087143;28;20213;-72
2021/06/09 08:40:33;;;;;;;;;;;22.10;85.60;;;;;;5098234;28;20292;-72
2021/06/09 08:42:59;;;;;;;;;;;22.70;85.20;;;;;;5098053;28;19966;-72
2021/06/09 08:45:25;;;;;;;;;;;24.00;81.60;;;;;;5098182;28;19916;-72
2021/06/09 08:47:51;;;;;;;;;;;23.90;81.00;;;;;;5098238;28;19915;-72
2021/06/09 08:50:18;;;;;;;;;;;23.60;82.30;;;;;;5097744;28;20003;-72
2021/06/09 08:52:45;;;;;;;;;;;23.50;83.10;;;;;;5096979;28;19912;-72
2021/06/09 08:55:11;;;;;;;;;;;24.00;82.70;;;;;;5097960;28;19908;-72
2021/06/09 08:57:37;;;;;;;;;;;24.30;81.30;;;;;;5097141;28;19916;-72
2021/06/09 09:00:04;;;;;;;;;;;23.90;81.00;;;;;;5098151;28;19908;-72
2021/06/09 09:02:30;;;;;;;;;;;23.90;82.60;;;;;;5098611;28;19912;-72
2021/06/09 09:04:58;;;;;;;;;;;24.00;80.90;;;;;;5098030;28;19920;-72
2021/06/09 09:07:28;;;;;;;;;;;24.40;81.10;;;;;;5090006;28;19917;-72
2021/06/09 09:10:00;;;;;;;;;;;25.20;79.20;;;;;;5097534;28;19912;-72
2021/06/09 09:12:25;;;;;;;;;;;25.80;78.60;;;;;;5098073;28;20434;-72
2021/06/09 09:14:51;;;;;;;;;;;27.20;76.00;;;;;;5079827;28;19919;-72
2021/06/09 09:17:16;;;;;;;;;;;27.80;74.60;;;;;;5095358;28;19922;-72
2021/06/09 09:19:44;;;;;;;;;;;28.00;72.90;;;;;;5097891;28;19966;-72
2021/06/09 09:22:11;;;;;;;;;;;28.60;71.30;;;;;;5096857;28;19909;-72
2021/06/09 09:24:44;;;;;;;;;;;28.20;71.50;;;;;;5098012;28;19930;-72
2021/06/09 09:27:12;;;;;;;;;;;27.50;73.30;;;;;;5097766;28;19954;-72
2021/06/09 09:29:38;;;;;;;;;;;27.60;72.40;;;;;;5098087;28;20306;-72
2021/06/09 09:32:05;;;;;;;;;;;27.30;72.10;;;;;;5097804;28;20001;-73
2021/06/09 09:34:35;;;;;;;;;;;26.60;73.80;;;;;;5097805;28;19915;-72
2021/06/09 09:37:21;;;;;;;;;;;26.30;74.90;;;;;;5095272;28;19912;-72
2021/06/09 09:40:05;;;;;;;;;;;26.10;76.40;;;;;;5076827;28;19916;-72
2021/06/09 09:42:33;;;;;;;;;;;25.90;77.60;;;;;;5077373;28;19909;-72
2021/06/09 09:45:27;;;;;;;;;;;26.40;74.10;;;;;;5077402;28;20003;-72
2021/06/09 09:48:05;;;;;;;;;;;27.20;75.10;;;;;;5074537;28;19909;-72
2021/06/09 09:50:35;;;;;;;;;;;27.90;72.90;;;;;;5077324;28;19909;-72
2021/06/09 09:53:20;;;;;;;;;;;28.40;70.80;;;;;;5083383;28;19913;-72
2021/06/09 09:56:05;;;;;;;;;;;29.00;68.00;;;;;;5096562;28;19924;-72
2021/06/09 09:58:31;;;;;;;;;;;28.50;70.70;;;;;;5077089;28;19955;-72
2021/06/09 10:01:14;;;;;;;;;;;28.70;68.70;;;;;;5077010;28;19912;-72
2021/06/09 10:03:41;;;;;;;;;;;28.30;70.70;;;;;;5077132;28;19962;-72
2021/06/09 10:06:22;;;;;;;;;;;27.90;71.80;;;;;;5075878;28;19916;-72
2021/06/09 10:08:47;;;;;;;;;;;27.50;71.90;;;;;;5058941;28;19912;-72
2021/06/09 10:11:14;;;;;;;;;;;27.40;72.20;;;;;;5076908;28;19969;-72
2021/06/09 10:13:40;;;;;;;;;;;27.90;74.50;;;;;;5080246;28;19948;-72
2021/06/09 10:16:25;;;;;;;;;;;28.70;72.10;;;;;;5096503;28;19920;-72
2021/06/09 10:18:54;;;;;;;;;;;29.10;69.70;;;;;;5078416;28;19948;-72
2021/06/09 10:21:20;;;;;;;;;;;28.60;69.60;;;;;;5095055;28;20323;-72
2021/06/09 10:23:45;;;;;;;;;;;28.30;69.30;;;;;;5096518;28;19912;-72
2021/06/09 10:26:12;;;;;;;;;;;27.60;72.10;;;;;;5090616;28;19927;-72
2021/06/09 10:28:57;;;;;;;;;;;28.00;71.60;;;;;;5076567;28;19909;-72
2021/06/09 10:31:24;;;;;;;;;;;27.90;71.80;;;;;;5076545;28;19908;-72
2021/06/09 10:33:50;;;;;;;;;;;27.50;72.40;;;;;;5076475;28;19944;-73
2021/06/09 10:36:16;;;;;;;;;;;27.80;71.30;;;;;;5075283;28;19931;-73
2021/06/09 10:38:44;;;;;;;;;;;28.20;71.90;;;;;;5076406;28;19954;-73
2021/06/09 10:41:10;;;;;;;;;;;28.20;71.60;;;;;;5076403;28;19912;-72
2021/06/09 10:43:36;;;;;;;;;;;27.50;71.50;;;;;;5094196;28;19912;-72
2021/06/09 10:46:02;;;;;;;;;;;27.40;72.90;;;;;;5096116;28;19916;-74
2021/06/09 10:48:32;;;;;;;;;;;27.40;72.00;;;;;;5091463;28;19918;-74
2021/06/09 10:50:57;;;;;;;;;;;27.10;73.20;;;;;;5079634;28;19919;-74
2021/06/09 10:53:23;;;;;;;;;;;26.90;73.60;;;;;;5077425;28;19912;-73
2021/06/09 10:55:49;;;;;;;;;;;26.80;75.00;;;;;;5076072;28;19917;-73
2021/06/09 10:58:14;;;;;;;;;;;27.20;73.30;;;;;;5076255;28;19913;-73
2021/06/09 11:00:40;;;;;;;;;;;27.10;71.80;;;;;;5076195;28;19996;-73
2021/06/09 11:03:06;;;;;;;;;;;27.10;74.20;;;;;;5083849;28;19923;-73
2021/06/09 11:05:34;;;;;;;;;;;27.20;72.50;;;;;;5077623;28;19912;-73
2021/06/09 11:08:02;;;;;;;;;;;27.30;71.40;;;;;;5094956;28;19958;-73
2021/06/09 11:10:27;;;;;;;;;;;27.60;72.20;;;;;;5082996;28;20436;-73
2021/06/09 11:12:53;;;;;;;;;;;28.40;70.20;;;;;;5092352;28;19965;-73
2021/06/09 11:15:20;;;;;;;;;;;28.80;70.10;;;;;;5093874;28;19923;-73
2021/06/09 11:17:50;;;;;;;;;;;28.40;68.00;;;;;;5083094;28;20021;-71
2021/06/09 11:20:18;;;;;;;;;;;28.60;66.70;;;;;;5059084;28;20305;-72
2021/06/09 11:22:46;;;;;;;;;;;28.80;71.00;;;;;;5091581;28;19920;-71
2021/06/09 11:25:30;;;;;;;;;;;29.10;68.40;;;;;;5095844;28;20259;-72
2021/06/09 11:28:04;;;;;;;;;;;28.70;68.30;;;;;;5094122;28;19912;-72
2021/06/09 11:30:29;;;;;;;;;;;28.60;67.70;;;;;;5083542;28;19913;-72
2021/06/09 11:32:58;;;;;;;;;;;28.10;67.10;;;;;;5093797;28;19965;-72
2021/06/09 11:35:44;;;;;;;;;;;28.10;66.20;;;;;;5101178;28;19912;-72
2021/06/09 11:38:13;;;;;;;;;;;27.80;67.80;;;;;;5098302;28;19927;-71
2021/06/09 11:40:48;;;;;;;;;;;28.10;67.40;;;;;;5097842;28;19933;-72
2021/06/09 11:43:21;;;;;;;;;;;28.00;70.60;;;;;;5098019;28;20288;-72
2021/06/09 11:45:50;;;;;;;;;;;28.00;68.10;;;;;;5096099;28;19916;-72
2021/06/09 11:48:21;;;;;;;;;;;28.20;67.00;;;;;;5099994;28;19919;-72
2021/06/09 11:50:47;;;;;;;;;;;28.20;65.30;;;;;;5093031;28;19931;-72
2021/06/09 11:53:13;;;;;;;;;;;28.80;65.80;;;;;;5097044;28;19912;-72
2021/06/09 11:55:42;;;;;;;;;;;29.30;66.50;;;;;;5099625;28;19915;-72
2021/06/09 11:58:10;;;;;;;;;;;29.10;66.40;;;;;;5092240;28;19912;-72
2021/06/09 12:00:55;;;;;;;;;;;29.10;64.00;;;;;;5098867;28;19933;-72
2021/06/09 12:03:21;;;;;;;;;;;28.10;66.80;;;;;;5092845;28;19912;-72
2021/06/09 12:05:47;;;;;;;;;;;28.20;66.70;;;;;;5098267;28;19951;-72
2021/06/09 12:08:16;;;;;;;;;;;28.70;69.30;;;;;;5098796;28;20201;-72
2021/06/09 12:10:41;;;;;;;;;;;29.10;67.20;;;;;;5098756;28;19908;-72
2021/06/09 12:13:07;;;;;;;;;;;29.30;64.60;;;;;;5097236;28;19912;-72
2021/06/09 12:15:32;;;;;;;;;;;29.10;63.40;;;;;;5099335;28;19948;-72
2021/06/09 12:17:58;;;;;;;;;;;29.30;63.20;;;;;;5098994;28;20551;-72
2021/06/09 12:20:23;;;;;;;;;;;29.00;65.10;;;;;;5097969;28;19912;-72
2021/06/09 12:22:49;;;;;;;;;;;29.30;64.80;;;;;;5100026;28;19912;-72
2021/06/09 12:25:25;;;;;;;;;;;29.30;63.60;;;;;;5097860;28;19924;-72
2021/06/09 12:28:19;;;;;;;;;;;28.50;65.70;;;;;;5099232;28;19943;-72
2021/06/09 12:30:51;;;;;;;;;;;27.20;66.50;;;;;;5095711;28;19913;-72
2021/06/09 12:33:17;;;;;;;;;;;26.30;69.50;;;;;;5097003;28;19923;-72
2021/06/09 12:35:42;;;;;;;;;;;25.90;72.30;;;;;;5096727;28;19916;-72
2021/06/09 12:38:08;;;;;;;;;;;25.30;75.40;;;;;;5098317;28;19920;-72
2021/06/09 12:40:38;;;;;;;;;;;25.10;76.90;;;;;;5091478;28;19944;-72
2021/06/09 12:43:05;;;;;;;;;;;25.00;76.80;;;;;;5096094;28;19967;-72
2021/06/09 12:45:32;;;;;;;;;;;24.80;76.50;;;;;;5091052;28;20304;-72
2021/06/09 12:48:05;;;;;;;;;;;24.40;78.90;;;;;;5097153;28;19999;-72
2021/06/09 12:50:41;;;;;;;;;;;24.30;79.20;;;;;;5096332;28;19970;-72
2021/06/09 12:53:27;;;;;;;;;;;24.10;79.90;;;;;;5097942;28;19927;-72
2021/06/09 12:55:54;;;;;;;;;;;24.00;79.90;;;;;;5090122;28;19946;-72
2021/06/09 12:58:22;;;;;;;;;;;23.70;80.90;;;;;;5084160;28;19912;-71
2021/06/09 13:00:53;;;;;;;;;;;23.90;80.80;;;;;;5095260;28;20308;-72
2021/06/09 13:03:35;;;;;;;;;;;24.00;80.40;;;;;;5081750;28;19919;-72
2021/06/09 13:06:03;;;;;;;;;;;24.00;80.70;;;;;;5086612;28;20015;-72
2021/06/09 13:08:30;;;;;;;;;;;24.20;80.10;;;;;;5091478;28;20370;-72
2021/06/09 13:11:06;;;;;;;;;;;24.10;79.70;;;;;;5096844;28;20003;-72
2021/06/09 13:13:31;;;;;;;;;;;23.90;79.80;;;;;;5093559;28;19912;-72
2021/06/09 13:15:58;;;;;;;;;;;24.00;80.50;;;;;;5079559;28;20551;-72
2021/06/09 13:18:43;;;;;;;;;;;24.20;79.20;;;;;;5076111;28;19916;-73
2021/06/09 13:21:16;;;;;;;;;;;24.30;79.00;;;;;;5086598;28;19916;-72
2021/06/09 13:23:43;;;;;;;;;;;24.30;79.80;;;;;;5088728;28;19923;-72
2021/06/09 13:26:10;;;;;;;;;;;24.70;79.50;;;;;;5093676;28;19916;-72
2021/06/09 13:28:35;;;;;;;;;;;24.70;78.50;;;;;;5092160;28;19923;-72
2021/06/09 13:31:01;;;;;;;;;;;24.70;78.40;;;;;;5085601;28;20296;-72
2021/06/09 13:33:27;;;;;;;;;;;24.80;78.10;;;;;;5082700;28;19920;-72
2021/06/09 13:35:52;;;;;;;;;;;24.60;77.70;;;;;;5081804;28;19919;-72
2021/06/09 13:38:18;;;;;;;;;;;24.60;78.40;;;;;;5093198;28;20485;-72
2021/06/09 13:40:44;;;;;;;;;;;24.70;79.70;;;;;;5076413;28;19908;-73
2021/06/09 13:43:11;;;;;;;;;;;24.60;79.50;;;;;;5094526;28;20314;-73
2021/06/09 13:45:38;;;;;;;;;;;24.60;78.40;;;;;;5092874;28;19924;-73
2021/06/09 13:48:06;;;;;;;;;;;24.30;79.20;;;;;;5084341;28;19916;-72
2021/06/09 13:50:33;;;;;;;;;;;24.10;80.60;;;;;;5092774;28;19912;-72
2021/06/09 13:53:01;;;;;;;;;;;24.00;81.50;;;;;;5092433;28;19966;-73
2021/06/09 13:55:26;;;;;;;;;;;24.10;82.30;;;;;;5087783;28;20227;-72
2021/06/09 13:57:52;;;;;;;;;;;23.90;82.30;;;;;;5090957;28;19916;-72
2021/06/09 14:00:25;;;;;;;;;;;23.60;83.60;;;;;;5089857;28;19919;-72
2021/06/09 14:02:51;;;;;;;;;;;23.20;85.10;;;;;;5089805;28;19912;-73
2021/06/09 14:05:21;;;;;;;;;;;23.00;86.90;;;;;;5087723;28;19942;-72
2021/06/09 14:07:48;;;;;;;;;;;22.70;87.50;;;;;;5109183;28;19915;-73
2021/06/09 14:10:14;;;;;;;;;;;22.60;88.80;;;;;;5087496;28;20379;-72
2021/06/09 14:12:43;;;;;;;;;;;22.70;89.60;;;;;;5075599;28;19916;-73
2021/06/09 14:15:37;;;;;;;;;;;22.60;89.90;;;;;;5091862;28;19918;-72
2021/06/09 14:18:10;;;;;;;;;;;22.70;89.30;;;;;;5086770;28;19924;-72
2021/06/09 14:20:38;;;;;;;;;;;22.70;89.20;;;;;;5091918;28;20263;-72
2021/06/09 14:23:06;;;;;;;;;;;22.80;89.50;;;;;;5089550;28;19912;-72